createdAt,value
2023-03-21T00:03:04.187Z,22.60
2023-03-21T00:08:05.680Z,22.63
2023-03-21T00:13:07.204Z,22.59
2023-03-21T00:18:11.286Z,22.55
2023-03-21T00:23:13.014Z,22.48
2023-03-21T00:28:14.395Z,22.50
2023-03-21T00:33:22.317Z,22.57
2023-03-21T00:38:24.380Z,22.60
2023-03-21T00:43:30.078Z,22.59
2023-03-21T00:48:31.424Z,22.52
2023-03-21T00:53:32.869Z,22.52
2023-03-21T00:58:34.258Z,22.52
2023-03-21T01:03:42.528Z,22.56
2023-03-21T01:08:52.382Z,22.58
2023-03-21T01:14:04.151Z,22.62
2023-03-21T01:19:22.139Z,22.56
2023-03-21T01:24:25.785Z,22.56
2023-03-21T01:29:27.180Z,22.52
2023-03-21T01:34:29.156Z,22.57
2023-03-21T01:39:32.712Z,22.61
2023-03-21T01:44:54.646Z,22.63
2023-03-21T01:49:58.037Z,22.58
2023-03-21T01:54:59.438Z,22.48
2023-03-21T02:00:10.680Z,22.48
2023-03-21T02:05:13.092Z,22.53
2023-03-21T02:10:14.464Z,22.58
2023-03-21T02:15:16.041Z,22.62
2023-03-21T02:20:36.234Z,22.59
2023-03-21T02:26:04.606Z,22.48
2023-03-21T02:31:24.929Z,22.49
2023-03-21T02:36:52.352Z,22.53
2023-03-21T02:42:15.910Z,22.50
2023-03-21T02:47:22.111Z,22.53
2023-03-21T02:52:37.849Z,22.48
2023-03-21T02:57:43.772Z,22.47
2023-03-21T03:02:45.451Z,22.53
2023-03-21T03:08:26.595Z,22.54
2023-03-21T03:13:44.737Z,22.55
2023-03-21T03:18:52.630Z,22.51
2023-03-21T03:24:14.155Z,22.50
2023-03-21T03:29:19.176Z,22.45
2023-03-21T03:34:22.207Z,22.50
2023-03-21T03:39:35.154Z,22.56
2023-03-21T03:44:36.526Z,22.55
2023-03-21T03:49:49.227Z,22.50
2023-03-21T03:54:51.595Z,22.49
2023-03-21T03:59:52.989Z,22.55
2023-03-21T04:04:57.619Z,22.58
2023-03-21T04:09:59.103Z,22.58
2023-03-21T04:15:10.688Z,22.55
2023-03-21T04:20:18.721Z,22.46
2023-03-21T04:25:33.965Z,22.47
2023-03-21T04:30:36.276Z,22.53
2023-03-21T04:35:38.196Z,22.60
2023-03-21T04:40:39.667Z,22.59
2023-03-21T04:45:41.184Z,22.55
2023-03-21T04:50:42.589Z,22.50
2023-03-21T04:55:45.030Z,22.49
2023-03-21T05:00:46.871Z,22.55
2023-03-21T05:05:48.324Z,22.58
2023-03-21T05:10:49.742Z,22.59
2023-03-21T05:15:51.167Z,22.56
2023-03-21T05:20:55.643Z,22.46
2023-03-21T05:25:57.164Z,22.52
2023-03-21T05:30:58.630Z,22.59
2023-03-21T05:36:00.151Z,22.56
2023-03-21T05:41:01.567Z,22.58
2023-03-21T05:46:03.048Z,22.56
2023-03-21T05:51:04.611Z,22.54
2023-03-21T05:56:06.526Z,22.62
2023-03-21T06:01:07.958Z,22.68
2023-03-21T06:06:09.710Z,22.69
2023-03-21T06:11:30.848Z,22.70
2023-03-21T06:16:32.299Z,22.67
2023-03-21T06:21:33.686Z,22.61
2023-03-21T06:26:35.137Z,22.69
2023-03-21T06:31:36.780Z,22.76
2023-03-21T06:36:38.181Z,22.75
2023-03-21T06:41:39.602Z,22.70
2023-03-21T06:46:41.003Z,22.69
2023-03-21T06:51:42.783Z,22.67
2023-03-21T06:56:44.590Z,22.69
2023-03-21T07:01:45.979Z,22.73
2023-03-21T07:06:47.372Z,22.87
2023-03-21T07:11:50.220Z,22.94
2023-03-21T07:16:51.681Z,22.96
2023-03-21T07:21:53.162Z,23.03
2023-03-21T07:26:54.540Z,23.03
2023-03-21T07:31:56.052Z,23.09
2023-03-21T07:36:57.775Z,23.14
2023-03-21T07:41:59.187Z,23.11
2023-03-21T07:47:00.568Z,23.14
2023-03-21T07:52:04.611Z,23.12
2023-03-21T07:57:07.120Z,23.15
2023-03-21T08:02:13.038Z,23.27
2023-03-21T08:07:14.516Z,23.30
2023-03-21T08:12:16.703Z,23.21
2023-03-21T08:17:18.095Z,23.22
2023-03-21T08:22:19.558Z,23.24
2023-03-21T08:27:21.230Z,23.33
2023-03-21T08:32:29.093Z,23.31
2023-03-21T08:37:31.128Z,23.36
2023-03-21T08:42:32.622Z,23.39
2023-03-21T08:47:34.026Z,23.36
2023-03-21T08:52:35.424Z,23.30
2023-03-21T08:57:36.858Z,23.40
2023-03-21T09:02:38.406Z,23.29
2023-03-21T09:07:40.566Z,23.36
2023-03-21T09:12:42.067Z,23.32
2023-03-21T09:17:44.438Z,23.39
2023-03-21T09:22:47.500Z,23.28
2023-03-21T09:27:48.998Z,23.29
2023-03-21T09:32:50.399Z,23.28
2023-03-21T09:37:51.897Z,23.39
2023-03-21T09:43:21.883Z,23.35
2023-03-21T09:48:56.749Z,23.35
2023-03-21T09:54:00.683Z,23.34
2023-03-21T09:59:02.477Z,23.41
2023-03-21T10:04:05.717Z,23.40
2023-03-21T10:09:12.466Z,23.37
2023-03-21T10:14:18.639Z,23.30
2023-03-21T10:19:20.129Z,23.43
2023-03-21T10:24:22.634Z,23.42
2023-03-21T10:29:27.035Z,23.45
2023-03-21T10:34:32.122Z,23.47
2023-03-21T10:39:43.880Z,23.49
2023-03-21T10:44:47.170Z,23.51
2023-03-21T10:55:28.786Z,23.49
2023-03-21T11:00:43.214Z,23.39
2023-03-21T11:05:44.828Z,23.40
2023-03-21T11:10:59.654Z,23.53
2023-03-21T11:16:11.743Z,23.51
2023-03-21T11:21:13.703Z,23.49
2023-03-21T11:26:29.805Z,23.50
2023-03-21T11:31:38.697Z,23.52
2023-03-21T11:36:40.693Z,23.51
2023-03-21T11:41:42.159Z,23.48
2023-03-21T11:46:43.565Z,23.58
2023-03-21T11:51:54.140Z,23.60
2023-03-21T11:57:27.298Z,23.61
2023-03-21T12:03:06.245Z,23.64
2023-03-21T12:08:40.233Z,23.54
2023-03-21T12:13:56.560Z,23.50
2023-03-21T12:19:12.735Z,23.55
2023-03-21T12:24:22.004Z,23.49
2023-03-21T12:29:33.393Z,23.52
2023-03-21T12:34:52.867Z,23.62
2023-03-21T12:39:55.309Z,23.54
2023-03-21T12:45:15.811Z,23.56
2023-03-21T12:50:27.776Z,23.49
2023-03-21T12:55:33.431Z,23.43
2023-03-21T13:00:42.732Z,23.26
2023-03-21T13:06:05.044Z,23.29
2023-03-21T13:11:06.896Z,23.24
2023-03-21T13:16:27.449Z,23.13
2023-03-21T13:21:46.913Z,23.08
2023-03-21T13:26:49.902Z,23.10
2023-03-21T13:31:53.466Z,23.09
2023-03-21T13:36:57.739Z,23.08
2023-03-21T13:42:03.727Z,23.07
2023-03-21T13:47:06.573Z,23.07
2023-03-21T13:52:10.978Z,23.04
2023-03-21T13:57:31.904Z,23.00
2023-03-21T14:02:33.801Z,23.01
2023-03-21T14:07:42.333Z,23.00
2023-03-21T14:12:43.873Z,23.08
2023-03-21T14:17:56.401Z,23.04
2023-03-21T14:22:57.854Z,23.15
2023-03-21T14:28:01.143Z,23.07
2023-03-21T14:33:27.180Z,23.05
2023-03-21T14:38:33.437Z,23.02
2023-03-21T14:43:34.820Z,23.00
2023-03-21T14:48:36.311Z,22.95
2023-03-21T14:53:41.555Z,23.03
2023-03-21T14:58:44.270Z,23.06
2023-03-21T15:03:46.274Z,23.08
2023-03-21T15:09:04.056Z,22.99
2023-03-21T15:14:07.390Z,23.03
2023-03-21T15:19:10.144Z,23.06
2023-03-21T15:24:17.693Z,23.03
2023-03-21T15:29:19.100Z,23.06
2023-03-21T15:34:24.722Z,23.01
2023-03-21T15:39:27.197Z,22.99
2023-03-21T15:44:28.694Z,22.93
2023-03-21T15:49:34.061Z,22.92
2023-03-21T15:54:41.489Z,22.96
2023-03-21T15:59:42.882Z,22.88
2023-03-21T16:05:01.477Z,22.83
2023-03-21T16:10:04.468Z,22.87
2023-03-21T16:15:06.265Z,22.85
2023-03-21T16:20:27.218Z,22.78
2023-03-21T16:25:29.883Z,22.81
2023-03-21T16:30:31.284Z,22.81
2023-03-21T16:35:32.705Z,22.76
2023-03-21T16:40:39.313Z,22.76
2023-03-21T16:45:41.047Z,22.78
2023-03-21T16:50:42.541Z,22.85
2023-03-21T16:55:43.982Z,22.78
2023-03-21T17:00:45.465Z,22.65
2023-03-21T17:05:46.988Z,22.72
2023-03-21T17:10:48.376Z,22.72
2023-03-21T17:15:49.807Z,22.78
2023-03-21T17:20:51.188Z,22.79
2023-03-21T17:25:52.572Z,22.75
2023-03-21T17:30:53.975Z,22.70
2023-03-21T17:35:56.191Z,22.72
2023-03-21T17:40:59.530Z,22.68
2023-03-21T17:46:00.944Z,22.72
2023-03-21T17:51:02.386Z,22.71
2023-03-21T17:56:03.815Z,22.74
2023-03-21T18:01:05.224Z,22.72
2023-03-21T18:06:06.992Z,22.70
2023-03-21T18:11:08.552Z,22.76
2023-03-21T18:16:12.062Z,22.70
2023-03-21T18:21:19.493Z,22.69
2023-03-21T18:26:23.954Z,22.71
2023-03-21T18:31:26.521Z,22.74
2023-03-21T18:36:29.108Z,22.73
2023-03-21T18:41:31.350Z,22.69
2023-03-21T18:46:32.974Z,22.71
2023-03-21T18:51:34.406Z,22.76
2023-03-21T18:57:27.344Z,22.74
2023-03-21T19:01:58.609Z,22.72
2023-03-21T19:07:00.136Z,22.74
2023-03-21T19:12:01.946Z,22.75
2023-03-21T19:22:24.850Z,22.68
2023-03-21T19:27:26.912Z,22.73
2023-03-21T19:32:28.359Z,22.71
2023-03-21T19:37:29.770Z,22.69
2023-03-21T19:42:31.154Z,22.69
2023-03-21T19:47:32.792Z,22.76
2023-03-21T19:52:37.287Z,22.70
2023-03-21T19:57:38.670Z,22.72
2023-03-21T20:02:40.511Z,22.72
2023-03-21T20:07:42.027Z,22.68
2023-03-21T20:12:43.416Z,22.69
2023-03-21T20:17:44.885Z,22.73
2023-03-21T20:23:10.747Z,22.72
2023-03-21T20:28:17.136Z,22.67
2023-03-21T20:33:24.206Z,22.70
2023-03-21T20:38:25.999Z,22.72
2023-03-21T20:48:49.557Z,22.67
2023-03-21T20:53:51.494Z,22.69
2023-03-21T20:59:08.023Z,22.70
2023-03-21T21:04:19.675Z,22.68
2023-03-21T21:09:21.068Z,22.66
2023-03-21T21:14:22.441Z,22.69
2023-03-21T21:19:24.682Z,22.67
2023-03-21T21:24:26.097Z,22.66
2023-03-21T21:29:28.230Z,22.67
2023-03-21T21:34:30.282Z,22.66
2023-03-21T21:39:35.067Z,22.70
2023-03-21T21:44:37.400Z,22.63
2023-03-21T21:49:39.144Z,22.67
2023-03-21T21:54:45.422Z,22.71
2023-03-21T21:59:46.977Z,22.68
2023-03-21T22:04:48.393Z,22.69
2023-03-21T22:09:50.927Z,22.71
2023-03-21T22:14:52.315Z,22.65
2023-03-21T22:20:04.991Z,22.65
2023-03-21T22:25:09.447Z,22.67
2023-03-21T22:30:13.525Z,22.69
2023-03-21T22:35:14.893Z,22.71
2023-03-21T22:40:16.424Z,22.68
2023-03-21T22:45:17.844Z,22.70
2023-03-21T22:50:19.340Z,22.69
2023-03-21T22:55:20.714Z,22.65
2023-03-21T23:00:22.108Z,22.71
2023-03-21T23:05:23.551Z,22.70
2023-03-21T23:10:24.918Z,22.67
2023-03-21T23:15:26.302Z,22.69
2023-03-21T23:20:27.788Z,22.73
2023-03-21T23:25:30.192Z,22.69
2023-03-21T23:30:31.593Z,22.73
2023-03-21T23:35:34.522Z,22.73
2023-03-21T23:40:38.736Z,22.72
2023-03-21T23:45:40.663Z,22.68
2023-03-21T23:50:42.250Z,22.73
2023-03-21T23:55:43.639Z,22.72
